ETSL 192320Z 09004KT 9999 FEW060 BKN120 18/13 Q1025 BLU ETSL 192220Z 35006KT 9999 FEW050CB BKN120 19/12 Q1025 RETS BLU ETSL 192139Z VRB02KT 9999 VCTS FEW050CB SCT120 BKN280 20/11 Q1025 BLU+ ETSL 192120Z 29008KT 9999 SCT100 SCT200 BKN280 20/11 Q1024 BLU+ ETSL 192020Z 20007KT 9999 BKN120 BKN200 20/11 Q1023 BLU ETSL 191920Z 22005KT 9999 FEW060 SCT130 BKN200 22/10 Q1023 BLU+ ETSL 191820Z 24010KT 9999 FEW060 BKN200 24/11 Q1022 BLU+ ETSL 191720Z 25007KT 9999 FEW060 BKN300 26/11 Q1021 BLU+ ETSL 191620Z 24004KT 9999 FEW060 BKN300 27/13 Q1021 BLU+ ETSL 191520Z 23003KT 9999 FEW060 BKN300 28/12 Q1021 BLU+ ETSL 191440Z 24003KT 9999 FEW060 SCT320 29/13 Q1021 BLU+FCST CNL ETSL 191420Z 28003KT 9999 FEW060 SCT320 28/13 Q1021 BLU+BLU+ ETSL 191320Z 25005KT 9999 FEW060 SCT350 28/12 Q1022 BLU+BLU+ ETSL 191220Z 26008KT 9999 FEW060 SCT350 28/13 Q1022 BLU+BLU+ ETSL 191120Z 25008KT 9999 FEW050 SCT350 27/14 Q1022 BLU+BLU+ ETSL 191020Z 23008KT 9999 FEW040 SCT350 26/14 Q1023 BLU+BLU+ ETSL 190920Z 30004KT 9999 FEW035 SCT350 23/14 Q1023 BLU+BLU+ ETSL 190820Z 23004KT 9999 FEW030 SCT350 21/13 Q1023 BLU+BLU+ ETSL 190720Z VRB02KT 9999 SCT350 18/11 Q1023 BLU+BLU+ ETSL 190620Z VRB02KT 9999 SCT350 15/09 Q1023 BLU+BLU+ ETSL 190520Z VRB01KT 9999 SCT350 12/09 Q1023 BLU+BLU+ ETSL 190420Z VRB01KT 9999 BKN350 09/07 Q1022 BLU+BLU+ ETSL 190320Z 00000KT 9999 BKN350 09/07 Q1022 BLU+ ETSL 190220Z 04003KT 9999 BKN350 09/07 Q1022 BLU+ ETSL 190120Z 00000KT 9999 SCT350 12/08 Q1022 BLU+ ETSL 190020Z 09004KT 9999 SCT350 11/07 Q1022 BLU+ ETSL 182320Z 09004KT 9999 SCT350 12/07 Q1023 BLU+ ETSL 182220Z 08005KT 9999 SCT350 12/08 Q1023 BLU+ ETSL 182120Z 09004KT 9999 SCT350 13/08 Q1023 BLU+ ETSL 182020Z 09005KT 9999 BKN350 15/08 Q1023 BLU+ ETSL 181920Z 08006KT 9999 SCT350 17/09 Q1023 BLU+ ETSL 181820Z 06009KT 9999 FEW350 19/10 Q1023 BLU+ ETSL 181720Z 06012KT 9999 FEW330 21/11 Q1023 BLU+ ETSL 181620Z 07011KT 9999 FEW050 22/11 Q1023 BLU+ ETSL 181520Z 06011KT 9999 FEW050 SCT330 23/11 Q1023 BLU+ ETSL 181420Z 08010KT 9999 FEW050 BKN330 23/11 Q1023 BLU+FCST CNL ETSL 181320Z 06008KT 9999 FEW050 BKN330 23/11 Q1023 BLU+BLU+ ETSL 181220Z 06011KT 9999 FEW045 BKN340 23/11 Q1024 BLU+BLU+

METAR Messwerte "LECHFELD (GER-AF" ETSL

Zurück zur Übersicht

Ortsname
Ländercode / m ü. NN
Zeit Temperatur Taupunkt Rel.
Luftfeuchte
Luftdruck:
Altimeter
NN
Station
Wind in Beaufort
(Knoten)
Sichtweite
(Meter)
Wolken
(Meter über Grund)
Wettererscheinung
LECHFELD (GER-AF
DE 548
Fr 20.05. 01:20181373 %1025
1024
960
O 2 (4)>= 10000Stark bewölkt (3700)
Leicht bewölkt (1800)
 
LECHFELD (GER-AF
DE 548
Fr 20.05. 00:20191264 %1025
1024
960
N 2 (6)>= 10000Stark bewölkt (3700)
Leicht bewölkt Cb (1500)
 
LECHFELD (GER-AF
DE 548
Do 19.05. 23:39201156 %1025
1024
960
Uml 1 (2)>= 10000Stark bewölkt (8500)
Wolkig (3700)
Leicht bewölkt Cb (1500)
 
LECHFELD (GER-AF
DE 548
Do 19.05. 23:20201156 %1024
1023
959
WNW 3 (8)>= 10000Stark bewölkt (8500)
Wolkig (6100)
Wolkig (3000)
 
LECHFELD (GER-AF
DE 548
Do 19.05. 22:20201156 %1023
1022
958
SSW 3 (7)>= 10000Stark bewölkt (6100)
Stark bewölkt (3700)
 
LECHFELD (GER-AF
DE 548
Do 19.05. 21:20221046 %1023
1022
958
SW 2 (5)>= 10000Stark bewölkt (6100)
Wolkig (4000)
Leicht bewölkt (1800)
 
LECHFELD (GER-AF
DE 548
Do 19.05. 20:20241144 %1022
1020
957
WSW 3 (10)>= 10000Stark bewölkt (6100)
Leicht bewölkt (1800)
 
LECHFELD (GER-AF
DE 548
Do 19.05. 19:20261139 %1021
1019
956
WSW 3 (7)>= 10000Stark bewölkt (9100)
Leicht bewölkt (1800)
 
LECHFELD (GER-AF
DE 548
Do 19.05. 18:20271342 %1021
1018
956
WSW 2 (4)>= 10000Stark bewölkt (9100)
Leicht bewölkt (1800)
 
LECHFELD (GER-AF
DE 548
Do 19.05. 17:20281237 %1021
1018
956
SW 2 (3)>= 10000Stark bewölkt (9100)
Leicht bewölkt (1800)
 
LECHFELD (GER-AF
DE 548
Do 19.05. 16:40291337 %1021
1018
956
WSW 2 (3)>= 10000Wolkig (9800)
Leicht bewölkt (1800)
 
LECHFELD (GER-AF
DE 548
Do 19.05. 16:20281340 %1021
1018
956
W 2 (3)>= 10000Wolkig (9800)
Leicht bewölkt (1800)
 
LECHFELD (GER-AF
DE 548
Do 19.05. 15:20281237 %1022
1019
957
WSW 2 (5)>= 10000Wolkig (11000)
Leicht bewölkt (1800)
 
LECHFELD (GER-AF
DE 548
Do 19.05. 14:20281340 %1022
1019
957
W 3 (8)>= 10000Wolkig (11000)
Leicht bewölkt (1800)
 
LECHFELD (GER-AF
DE 548
Do 19.05. 13:20271445 %1022
1019
957
WSW 3 (8)>= 10000Wolkig (11000)
Leicht bewölkt (1500)
 
LECHFELD (GER-AF
DE 548
Do 19.05. 12:20261448 %1023
1021
958
SW 3 (8)>= 10000Wolkig (11000)
Leicht bewölkt (1200)
 
LECHFELD (GER-AF
DE 548
Do 19.05. 11:20231457 %1023
1021
958
WNW 2 (4)>= 10000Wolkig (11000)
Leicht bewölkt (1100)
 
LECHFELD (GER-AF
DE 548
Do 19.05. 10:20211360 %1023
1022
958
SW 2 (4)>= 10000Wolkig (11000)
Leicht bewölkt (910)
 
LECHFELD (GER-AF
DE 548
Do 19.05. 09:20181164 %1023
1022
958
Uml 1 (2)>= 10000Wolkig (11000) 
LECHFELD (GER-AF
DE 548
Do 19.05. 08:2015967 %1023
1023
958
Uml 1 (2)>= 10000Wolkig (11000) 
LECHFELD (GER-AF
DE 548
Do 19.05. 07:2012982 %1023
1024
958
Uml 1 (1)>= 10000Wolkig (11000) 
LECHFELD (GER-AF
DE 548
Do 19.05. 06:209787 %1022
1024
957
Uml 1 (1)>= 10000Stark bewölkt (11000) 
LECHFELD (GER-AF
DE 548
Do 19.05. 05:209787 %1022
1024
957
Windstill>= 10000Stark bewölkt (11000) 
LECHFELD (GER-AF
DE 548
Do 19.05. 04:209787 %1022
1024
957
NO 2 (3)>= 10000Stark bewölkt (11000) 
LECHFELD (GER-AF
DE 548
Do 19.05. 03:2012876 %1022
1023
957
Windstill>= 10000Wolkig (11000) 
LECHFELD (GER-AF
DE 548
Do 19.05. 02:2011776 %1022
1023
957
O 2 (4)>= 10000Wolkig (11000) 
LECHFELD (GER-AF
DE 548
Do 19.05. 01:2012771 %1023
1024
958
O 2 (4)>= 10000Wolkig (11000) 
LECHFELD (GER-AF
DE 548
Do 19.05. 00:2012876 %1023
1024
958
O 2 (5)>= 10000Wolkig (11000) 
LECHFELD (GER-AF
DE 548
Mi 18.05. 23:2013872 %1023
1024
958
O 2 (4)>= 10000Wolkig (11000) 
LECHFELD (GER-AF
DE 548
Mi 18.05. 22:2015863 %1023
1023
958
O 2 (5)>= 10000Stark bewölkt (11000) 
LECHFELD (GER-AF
DE 548
Mi 18.05. 21:2017959 %1023
1023
958
O 2 (6)>= 10000Wolkig (11000) 
LECHFELD (GER-AF
DE 548
Mi 18.05. 20:20191056 %1023
1022
958
ONO 3 (9)>= 10000Leicht bewölkt (11000) 
LECHFELD (GER-AF
DE 548
Mi 18.05. 19:20211153 %1023
1022
958
ONO 4 (12)>= 10000Leicht bewölkt (10000) 
LECHFELD (GER-AF
DE 548
Mi 18.05. 18:20221150 %1023
1022
958
ONO 4 (11)>= 10000Leicht bewölkt (1500) 
LECHFELD (GER-AF
DE 548
Mi 18.05. 17:20231147 %1023
1021
958
ONO 4 (11)>= 10000Wolkig (10000)
Leicht bewölkt (1500)
 
LECHFELD (GER-AF
DE 548
Mi 18.05. 16:20231147 %1023
1021
958
O 3 (10)>= 10000Stark bewölkt (10000)
Leicht bewölkt (1500)
 
LECHFELD (GER-AF
DE 548
Mi 18.05. 15:20231147 %1023
1021
958
ONO 3 (8)>= 10000Stark bewölkt (10000)
Leicht bewölkt (1500)
 
LECHFELD (GER-AF
DE 548
Mi 18.05. 14:20231147 %1024
1022
959
ONO 4 (11)>= 10000Stark bewölkt (10000)
Leicht bewölkt (1400)
 

Altimeter: Einstellung am Altimeter (Höhenmesser), die Höhe 0 muss auf diesen Luftdruckwert zeigen, damit das Gerät die Stationshöhe richtig anzeigt.

NN: Luftdruck reduziert auf "Normal Null", auf Meereshöhe, dieser von der Temperatur abhängige Wert wird bisweilen unkorrekt einfach als "Luftdruck" bezeichnet. Eigentlich nur eine fiktive Größe, die es erlaubt, Stationen auf unterschiedlichen Höhen miteinander zu vergleichen.

Station: Realer Luftdruck an der Station.